This is the latest recevied weather packets stored in our database for station/object K3JSE-2. If no packets are shown the sender has not sent any weather packets the latest 1 day(s).
| Time | Temp. | Humidity | Pressure | Rain* | Wind** | Luminosity | Snow |
|---|---|---|---|---|---|---|---|
| 1778087070 | 15° C | 88% | 1008.1 hPa | 0 mm | - | - | - |
| 1778086416 | 15° C | 88% | 1008.3 hPa | 0 mm | - | - | - |
| 1778085650 | 15.56° C | 89% | 1008.2 hPa | 0 mm | - | - | - |
| 1778084988 | 15.56° C | 89% | 1008.3 hPa | 0 mm | - | - | - |
| 1778084729 | 15.56° C | 90% | 1008.4 hPa | 0 mm | - | - | - |
| 1778081245 | 15° C | 89% | 1009.6 hPa | 0 mm | - | - | - |
| 1778079965 | 15° C | 88% | 1009.6 hPa | 0 mm | - | - | - |
| 1778078572 | 15.56° C | 87% | 1009.4 hPa | 0 mm | - | - | - |
| 1778077178 | 15.56° C | 86% | 1009.4 hPa | 0 mm | - | - | - |
| 1778076551 | 15.56° C | 84% | 1009.4 hPa | 0 mm | - | - | - |
| 1778075483 | 16.11° C | 80% | 1009.3 hPa | 0 mm | - | - | - |
| 1778072258 | 16.67° C | 78% | 1009.4 hPa | 0 mm | - | - | - |
| 1778067205 | 17.22° C | 73% | 1008.9 hPa | 0 mm | - | - | - |
| 1778066524 | 17.22° C | 74% | 1008.9 hPa | 0 mm | - | - | - |
| 1778064415 | 17.22° C | 74% | 1008.8 hPa | 0 mm | - | - | - |
| 1778064402 | 17.22° C | 74% | 1008.8 hPa | 0 mm | - | - | - |
| 1778063080 | 17.22° C | 73% | 1008.6 hPa | 0 mm | - | - | - |
| 1778063018 | 17.22° C | 73% | 1008.6 hPa | 0 mm | - | - | - |
| 1778060971 | 17.22° C | 72% | 1008.6 hPa | 0 mm | - | - | - |
| 1778060613 | 17.22° C | 72% | 1008.6 hPa | 0 mm | - | - | - |
| 1778059778 | 17.78° C | 71% | 1008.6 hPa | 0 mm | - | - | - |
| 1778058698 | 17.78° C | 71% | 1008.6 hPa | 0 mm | - | - | - |
| 1778056550 | 17.78° C | 70% | 1008.8 hPa | 0 mm | - | - | - |
| 1778054172 | 18.33° C | 69% | 1008.8 hPa | 0 mm | - | - | - |
| 1778053626 | 18.33° C | 68% | 1008.9 hPa | 0 mm | - | - | - |
* Rain latest hour (hover to see other rain measurements)
** Current wind speed in m/s (hover to see current wind gust speed)